This is the latest recevied weather packets stored in our database for station/object VK3HAG. If no packets are shown the sender has not sent any weather packets the latest 10 day(s).
| Time | Temp. | Humidity | Pressure | Rain* | Wind** | Luminosity | Snow |
|---|---|---|---|---|---|---|---|
| 1777942804 | 15° C | 73% | 1019.1 hPa | 0 mm | - | - | - |
| 1777941904 | 14.44° C | 76% | 1019 hPa | 0 mm | - | - | - |
| 1777941005 | 14.44° C | 77% | 1018.7 hPa | 0 mm | - | - | - |
| 1777940105 | 14.44° C | 77% | 1018.7 hPa | 0 mm | - | - | - |
| 1777939204 | 13.89° C | 80% | 1018.5 hPa | 0 mm | - | - | - |
| 1777938305 | 13.33° C | 83% | 1018.5 hPa | 0 mm | - | - | - |
| 1777937405 | 13.33° C | 85% | 1018.5 hPa | 0 mm | - | - | - |
| 1777936504 | 12.78° C | 88% | 1018.4 hPa | 0 mm | - | - | - |
| 1777935605 | 12.78° C | 91% | 1018.3 hPa | 0 mm | - | - | - |
| 1777934705 | 12.22° C | 92% | 1018.1 hPa | 0 mm | - | - | - |
| 1777933804 | 11.67° C | 93% | 1017.9 hPa | 0 mm | - | - | - |
| 1777932904 | 11.11° C | 93% | 1017.6 hPa | 0 mm | - | - | - |
| 1777932004 | 11.11° C | 92% | 1017.4 hPa | 0 mm | - | - | - |
| 1777931104 | 10.56° C | 91% | 1017.1 hPa | 0 mm | - | - | - |
| 1777930204 | 11.11° C | 91% | 1016.8 hPa | 0 mm | - | - | - |
| 1777929304 | 11.11° C | 91% | 1016.5 hPa | 0 mm | - | - | - |
| 1777928404 | 11.67° C | 90% | 1016.4 hPa | 0 mm | - | - | - |
| 1777927504 | 11.67° C | 90% | 1016.2 hPa | 0 mm | - | - | - |
| 1777926604 | 11.67° C | 90% | 1016.1 hPa | 0 mm | - | - | - |
| 1777925704 | 11.67° C | 90% | 1015.7 hPa | 0 mm | - | - | - |
| 1777924804 | 12.22° C | 90% | 1015.5 hPa | 0.25 mm | - | - | - |
| 1777923904 | 12.22° C | 89% | 1015.4 hPa | 0.25 mm | - | - | - |
| 1777923004 | 12.22° C | 88% | 1015.3 hPa | 0.25 mm | - | - | - |
| 1777922104 | 12.78° C | 86% | 1015.2 hPa | 0.25 mm | - | - | - |
| 1777921204 | 12.78° C | 84% | 1014.9 hPa | 0 mm | - | - | - |
* Rain latest hour (hover to see other rain measurements)
** Current wind speed in m/s (hover to see current wind gust speed)